Time;durP1;ratioP1;P1;durP2;ratioP2;P2;SDS_P1;SDS_P2;PMS_P1;PMS_P2;Temp;Humidity;BMP_temperature;BMP_pressure;BME280_temperature;BME280_humidity;BME280_pressure;Samples;Min_cycle;Max_cycle;Signal;HPM_P1;HPM_P2
2022/08/22 00:00:47;;;;;;;3.57;1.50;;;;;;;;;;5051006;28;20243;-81
2022/08/22 00:03:19;;;;;;;7.13;1.80;;;;;;;;;;5052737;28;20318;-80
2022/08/22 00:05:53;;;;;;;2.90;1.53;;;;;;;;;;5050698;28;20204;-79
2022/08/22 00:08:25;;;;;;;4.37;1.53;;;;;;;;;;5049935;28;20235;-80
2022/08/22 00:10:55;;;;;;;5.27;1.57;;;;;;;;;;5055341;28;20286;-80
2022/08/22 00:13:26;;;;;;;4.67;1.70;;;;;;;;;;5053494;28;20293;-79
2022/08/22 00:16:00;;;;;;;3.87;1.57;;;;;;;;;;5054292;28;20282;-79
2022/08/22 00:18:31;;;;;;;3.97;1.90;;;;;;;;;;5054504;28;20611;-80
2022/08/22 00:21:04;;;;;;;3.00;1.43;;;;;;;;;;5048147;28;20226;-80
2022/08/22 00:23:33;;;;;;;2.43;1.50;;;;;;;;;;5053947;28;20207;-79
2022/08/22 00:26:02;;;;;;;3.53;1.60;;;;;;;;;;5053388;28;20223;-79
2022/08/22 00:28:32;;;;;;;4.90;1.70;;;;;;;;;;5056580;28;20623;-80
2022/08/22 00:31:01;;;;;;;3.53;1.63;;;;;;;;;;5053168;28;20238;-79
2022/08/22 00:33:35;;;;;;;5.13;1.60;;;;;;;;;;5049568;28;20266;-80
2022/08/22 00:36:10;;;;;;;5.87;1.70;;;;;;;;;;5055253;28;20206;-79
2022/08/22 00:38:41;;;;;;;6.40;1.80;;;;;;;;;;5052620;28;20207;-79
2022/08/22 00:41:15;;;;;;;2.67;1.40;;;;;;;;;;5050442;28;20704;-80
2022/08/22 00:44:00;;;;;;;2.23;1.30;;;;;;;;;;5051220;28;20570;-80
2022/08/22 00:46:40;;;;;;;4.93;1.57;;;;;;;;;;5054094;28;20206;-80
2022/08/22 00:49:25;;;;;;;3.13;1.50;;;;;;;;;;5051586;28;20533;-80
2022/08/22 00:52:01;;;;;;;2.67;1.40;;;;;;;;;;5050893;28;20229;-79
2022/08/22 00:54:37;;;;;;;2.43;1.40;;;;;;;;;;5054612;28;20223;-80
2022/08/22 00:57:19;;;;;;;3.50;1.53;;;;;;;;;;5050910;28;20233;-81
2022/08/22 01:00:04;;;;;;;4.80;1.60;;;;;;;;;;5053163;28;20203;-81
2022/08/22 01:02:34;;;;;;;4.17;1.70;;;;;;;;;;5053707;28;20218;-82
2022/08/22 01:05:08;;;;;;;3.53;1.63;;;;;;;;;;5053706;28;20302;-80
2022/08/22 01:07:58;;;;;;;6.10;1.73;;;;;;;;;;5051213;28;20209;-79
2022/08/22 01:10:33;;;;;;;4.53;2.33;;;;;;;;;;5054973;28;20222;-79
2022/08/22 01:13:13;;;;;;;2.77;1.53;;;;;;;;;;5048943;28;20332;-79
2022/08/22 01:15:41;;;;;;;5.40;1.83;;;;;;;;;;5055234;28;20218;-79
2022/08/22 01:18:26;;;;;;;4.67;1.77;;;;;;;;;;5054965;28;20620;-78
2022/08/22 01:21:08;;;;;;;4.03;1.77;;;;;;;;;;5050189;28;20249;-79
2022/08/22 01:24:02;;;;;;;5.33;1.60;;;;;;;;;;5045875;28;20206;-79
2022/08/22 01:26:48;;;;;;;2.67;1.57;;;;;;;;;;5047255;28;20231;-78
2022/08/22 01:29:48;;;;;;;3.50;1.70;;;;;;;;;;5053115;28;20209;-79
2022/08/22 01:32:34;;;;;;;4.73;1.80;;;;;;;;;;5051089;28;20776;-81
2022/08/22 01:35:15;;;;;;;4.17;1.83;;;;;;;;;;5048632;28;20282;-81
2022/08/22 01:37:57;;;;;;;2.37;1.43;;;;;;;;;;5048206;28;20293;-80
2022/08/22 01:40:45;;;;;;;2.57;1.47;;;;;;;;;;5052222;28;20282;-78
2022/08/22 01:43:17;;;;;;;4.33;1.60;;;;;;;;;;5048715;28;20306;-81
2022/08/22 01:45:53;;;;;;;3.77;1.60;;;;;;;;;;5051127;28;20398;-79
2022/08/22 01:48:22;;;;;;;3.43;1.63;;;;;;;;;;5051756;28;20290;-79
2022/08/22 01:50:52;;;;;;;4.80;2.00;;;;;;;;;;5052391;28;20700;-80
2022/08/22 01:53:23;;;;;;;3.80;1.90;;;;;;;;;;5049147;28;20310;-81
2022/08/22 01:55:56;;;;;;;3.73;1.60;;;;;;;;;;5045032;28;20661;-80
2022/08/22 01:58:25;;;;;;;3.63;1.90;;;;;;;;;;5050735;28;20199;-80
2022/08/22 02:00:59;;;;;;;2.50;1.60;;;;;;;;;;5049863;28;20239;-80
2022/08/22 02:03:28;;;;;;;6.77;1.90;;;;;;;;;;5052812;28;20268;-80
2022/08/22 02:06:00;;;;;;;7.97;1.67;;;;;;;;;;5050236;28;20230;-80
2022/08/22 02:08:32;;;;;;;2.77;1.60;;;;;;;;;;5050651;28;20289;-80
2022/08/22 02:11:03;;;;;;;5.63;2.10;;;;;;;;;;5048591;28;20330;-80
2022/08/22 02:13:52;;;;;;;3.90;1.40;;;;;;;;;;5046515;28;20269;-81
2022/08/22 02:16:23;;;;;;;5.43;1.70;;;;;;;;;;5046978;28;20243;-79
2022/08/22 02:19:04;;;;;;;5.67;1.70;;;;;;;;;;5046799;28;20641;-79
2022/08/22 02:21:40;;;;;;;3.07;1.70;;;;;;;;;;5046989;28;20309;-80
2022/08/22 02:24:18;;;;;;;3.37;1.57;;;;;;;;;;5049586;28;20207;-79
2022/08/22 02:26:48;;;;;;;5.87;1.80;;;;;;;;;;5043621;28;20210;-80
2022/08/22 02:29:18;;;;;;;3.17;1.80;;;;;;;;;;5049190;28;20258;-80
2022/08/22 02:31:49;;;;;;;4.50;1.80;;;;;;;;;;5046526;28;20301;-80
2022/08/22 02:34:24;;;;;;;4.53;1.80;;;;;;;;;;5048617;28;20195;-80
2022/08/22 02:36:56;;;;;;;4.10;2.03;;;;;;;;;;5047060;28;20740;-79
2022/08/22 02:39:28;;;;;;;4.40;2.00;;;;;;;;;;5045200;28;20282;-80
2022/08/22 02:41:57;;;;;;;6.10;2.00;;;;;;;;;;5043651;28;20215;-80
2022/08/22 02:44:28;;;;;;;6.33;1.83;;;;;;;;;;5046786;28;20297;-79
2022/08/22 02:47:01;;;;;;;9.90;2.17;;;;;;;;;;5044249;28;20209;-79
2022/08/22 02:49:32;;;;;;;3.90;1.97;;;;;;;;;;5050348;28;20298;-79
2022/08/22 02:52:05;;;;;;;5.57;1.97;;;;;;;;;;5045934;28;20288;-80
2022/08/22 02:54:37;;;;;;;3.30;1.60;;;;;;;;;;5043701;28;20204;-78
2022/08/22 02:57:07;;;;;;;2.67;1.97;;;;;;;;;;5042451;28;20258;-79
2022/08/22 02:59:35;;;;;;;4.70;2.00;;;;;;;;;;5044817;28;20252;-78
2022/08/22 03:02:18;;;;;;;5.37;1.90;;;;;;;;;;5044068;28;20229;-79
2022/08/22 03:04:46;;;;;;;4.53;1.80;;;;;;;;;;5050024;28;20665;-79
2022/08/22 03:07:18;;;;;;;3.73;2.10;;;;;;;;;;5046212;28;20204;-78
2022/08/22 03:09:49;;;;;;;5.77;1.90;;;;;;;;;;5045319;28;20206;-78
2022/08/22 03:12:20;;;;;;;3.53;1.93;;;;;;;;;;5046748;28;20223;-79
2022/08/22 03:14:50;;;;;;;7.43;1.70;;;;;;;;;;5052177;28;20791;-79
2022/08/22 03:17:22;;;;;;;4.77;2.03;;;;;;;;;;5046279;28;20313;-79
2022/08/22 03:19:54;;;;;;;6.20;1.87;;;;;;;;;;5055396;28;20211;-79
2022/08/22 03:22:25;;;;;;;6.37;1.90;;;;;;;;;;5054581;28;20234;-79
2022/08/22 03:24:55;;;;;;;3.70;1.83;;;;;;;;;;5053792;28;20234;-79
2022/08/22 03:27:24;;;;;;;5.10;2.17;;;;;;;;;;5052856;28;20209;-80
2022/08/22 03:29:53;;;;;;;4.07;1.80;;;;;;;;;;5054297;28;20205;-80
2022/08/22 03:32:22;;;;;;;5.20;2.00;;;;;;;;;;5061274;28;20222;-80
2022/08/22 03:35:00;;;;;;;4.43;1.93;;;;;;;;;;5051498;28;20217;-80
2022/08/22 03:37:37;;;;;;;4.90;2.00;;;;;;;;;;5053300;28;20215;-79
2022/08/22 03:40:07;;;;;;;4.43;2.10;;;;;;;;;;5050328;28;20214;-79
2022/08/22 03:42:40;;;;;;;6.60;2.00;;;;;;;;;;5056008;28;20638;-80
2022/08/22 03:45:19;;;;;;;4.57;2.13;;;;;;;;;;5052995;28;20206;-79
2022/08/22 03:47:58;;;;;;;4.40;2.23;;;;;;;;;;5052163;28;20205;-80
2022/08/22 03:50:44;;;;;;;6.37;1.90;;;;;;;;;;5056190;28;20276;-79
2022/08/22 03:53:26;;;;;;;5.77;2.33;;;;;;;;;;5057361;28;20238;-79
2022/08/22 03:56:08;;;;;;;3.07;2.30;;;;;;;;;;5055252;28;20296;-79
2022/08/22 03:58:45;;;;;;;2.93;2.10;;;;;;;;;;5046326;28;20260;-79
2022/08/22 04:01:20;;;;;;;6.63;2.40;;;;;;;;;;5049333;28;20888;-80
2022/08/22 04:04:12;;;;;;;5.73;2.40;;;;;;;;;;5041943;28;20207;-80
2022/08/22 04:06:49;;;;;;;4.20;2.17;;;;;;;;;;5050204;28;20199;-79
2022/08/22 04:09:35;;;;;;;6.83;1.83;;;;;;;;;;5052296;28;20198;-79
2022/08/22 04:12:12;;;;;;;6.60;2.10;;;;;;;;;;5053946;28;20310;-80
2022/08/22 04:14:49;;;;;;;3.67;1.90;;;;;;;;;;5052050;28;20207;-79
2022/08/22 04:17:40;;;;;;;3.60;2.03;;;;;;;;;;5051431;28;20191;-79
2022/08/22 04:20:14;;;;;;;4.50;2.37;;;;;;;;;;5035179;28;20204;-79
2022/08/22 04:22:59;;;;;;;4.73;2.13;;;;;;;;;;5053572;28;20213;-78
2022/08/22 04:25:32;;;;;;;4.30;2.07;;;;;;;;;;5051150;28;20207;-79
2022/08/22 04:28:03;;;;;;;5.73;2.20;;;;;;;;;;5046287;28;20593;-79
2022/08/22 04:30:34;;;;;;;5.27;2.53;;;;;;;;;;5054720;28;20239;-80
2022/08/22 04:33:05;;;;;;;3.57;2.13;;;;;;;;;;5051933;28;20294;-78
2022/08/22 04:35:34;;;;;;;6.73;2.00;;;;;;;;;;5049755;28;20227;-79
2022/08/22 04:38:04;;;;;;;4.83;2.20;;;;;;;;;;5054028;28;20207;-78
2022/08/22 04:40:33;;;;;;;7.10;2.10;;;;;;;;;;5047327;28;20223;-79
2022/08/22 04:43:04;;;;;;;3.53;2.20;;;;;;;;;;5049444;28;20569;-79
2022/08/22 04:45:35;;;;;;;8.27;2.60;;;;;;;;;;5049105;28;20286;-78
2022/08/22 04:48:06;;;;;;;6.93;2.27;;;;;;;;;;5048405;28;20291;-79
2022/08/22 04:50:37;;;;;;;9.23;2.50;;;;;;;;;;5050556;28;20229;-79
2022/08/22 04:53:19;;;;;;;4.43;2.23;;;;;;;;;;5044935;28;20291;-79
2022/08/22 04:55:51;;;;;;;3.90;2.00;;;;;;;;;;5050625;28;20220;-80
2022/08/22 04:58:25;;;;;;;4.43;2.13;;;;;;;;;;5050230;28;20214;-79
2022/08/22 05:00:57;;;;;;;4.77;2.23;;;;;;;;;;5050517;28;20227;-79
2022/08/22 05:03:27;;;;;;;3.87;2.00;;;;;;;;;;5043097;28;20753;-79
2022/08/22 05:05:56;;;;;;;8.93;2.53;;;;;;;;;;5046941;28;20230;-80
2022/08/22 05:08:30;;;;;;;6.27;2.00;;;;;;;;;;5047623;28;20686;-79
2022/08/22 05:11:00;;;;;;;5.57;2.10;;;;;;;;;;5051367;28;20222;-80
2022/08/22 05:13:29;;;;;;;6.80;2.60;;;;;;;;;;5047905;28;20225;-80
2022/08/22 05:16:01;;;;;;;6.63;2.13;;;;;;;;;;5042725;28;20226;-78
2022/08/22 05:18:29;;;;;;;2.73;1.70;;;;;;;;;;5048719;28;20209;-79
2022/08/22 05:20:59;;;;;;;5.77;2.07;;;;;;;;;;5049149;28;20215;-80
2022/08/22 05:23:29;;;;;;;4.43;1.67;;;;;;;;;;5049433;28;20207;-79
2022/08/22 05:25:58;;;;;;;7.33;1.93;;;;;;;;;;5044743;28;20199;-79
2022/08/22 05:28:31;;;;;;;8.40;1.87;;;;;;;;;;5047057;28;20218;-79
2022/08/22 05:31:00;;;;;;;5.73;2.00;;;;;;;;;;5049074;28;20231;-78
2022/08/22 05:33:30;;;;;;;6.97;1.80;;;;;;;;;;5049346;28;20207;-78
2022/08/22 05:36:03;;;;;;;2.83;1.63;;;;;;;;;;5048165;28;20294;-79
2022/08/22 05:38:32;;;;;;;4.97;1.60;;;;;;;;;;5046404;28;20211;-79
2022/08/22 05:41:02;;;;;;;2.93;1.60;;;;;;;;;;5047203;28;20314;-79
2022/08/22 05:43:30;;;;;;;3.27;1.67;;;;;;;;;;5047317;28;20587;-78
2022/08/22 05:45:58;;;;;;;3.60;1.60;;;;;;;;;;5046302;28;20214;-79
2022/08/22 05:48:32;;;;;;;4.60;1.80;;;;;;;;;;5047768;28;20702;-79
2022/08/22 05:51:04;;;;;;;8.90;2.00;;;;;;;;;;5042882;28;20314;-79
2022/08/22 05:53:35;;;;;;;2.63;1.60;;;;;;;;;;5049521;28;20207;-79
2022/08/22 05:56:04;;;;;;;5.03;1.70;;;;;;;;;;5051792;28;20266;-79
2022/08/22 05:58:45;;;;;;;6.97;1.90;;;;;;;;;;5050444;28;20286;-79
2022/08/22 06:01:19;;;;;;;4.50;1.70;;;;;;;;;;5049872;28;20215;-79
2022/08/22 06:03:55;;;;;;;4.37;2.20;;;;;;;;;;5049425;28;20292;-80
2022/08/22 06:06:23;;;;;;;8.57;1.87;;;;;;;;;;5045892;28;20203;-79
2022/08/22 06:08:54;;;;;;;7.90;1.80;;;;;;;;;;5048821;28;20297;-80
2022/08/22 06:11:25;;;;;;;10.90;1.87;;;;;;;;;;5047000;28;20231;-79
2022/08/22 06:13:54;;;;;;;6.97;1.73;;;;;;;;;;5050019;28;20642;-80
2022/08/22 06:16:23;;;;;;;6.50;1.93;;;;;;;;;;5048213;28;20228;-79
2022/08/22 06:18:52;;;;;;;7.70;1.90;;;;;;;;;;5052302;28;20206;-79
2022/08/22 06:21:21;;;;;;;6.80;1.40;;;;;;;;;;5048948;28;20225;-79
2022/08/22 06:23:50;;;;;;;5.70;1.83;;;;;;;;;;5048447;28;20207;-79
2022/08/22 06:26:18;;;;;;;8.33;2.23;;;;;;;;;;5045086;28;20208;-78
2022/08/22 06:28:47;;;;;;;11.57;2.00;;;;;;;;;;5047546;28;20216;-78
2022/08/22 06:31:16;;;;;;;6.10;1.50;;;;;;;;;;5046897;28;20231;-78
2022/08/22 06:33:44;;;;;;;9.50;1.93;;;;;;;;;;5045524;28;20572;-78
2022/08/22 06:36:30;;;;;;;12.37;1.80;;;;;;;;;;5041974;28;20679;-77
2022/08/22 06:39:02;;;;;;;5.87;1.50;;;;;;;;;;5046188;28;20203;-78
2022/08/22 06:41:31;;;;;;;4.97;1.20;;;;;;;;;;5048303;28;20314;-78
2022/08/22 06:43:59;;;;;;;5.33;1.50;;;;;;;;;;5047204;28;20258;-79
2022/08/22 06:46:27;;;;;;;3.47;1.93;;;;;;;;;;5049140;28;20206;-79
2022/08/22 06:48:55;;;;;;;3.87;1.23;;;;;;;;;;5051715;28;20195;-79
2022/08/22 06:51:25;;;;;;;5.63;1.30;;;;;;;;;;5047453;28;20232;-79
2022/08/22 06:53:55;;;;;;;4.97;1.30;;;;;;;;;;5048036;28;20646;-79
2022/08/22 06:56:24;;;;;;;6.10;1.60;;;;;;;;;;5049606;28;20378;-78
2022/08/22 06:58:53;;;;;;;4.90;1.70;;;;;;;;;;5049658;28;20544;-79
2022/08/22 07:01:21;;;;;;;3.23;1.40;;;;;;;;;;5052014;28;20291;-79
2022/08/22 07:03:52;;;;;;;6.43;1.30;;;;;;;;;;5049411;28;20236;-79
2022/08/22 07:06:28;;;;;;;6.03;1.23;;;;;;;;;;5050964;28;20697;-78
2022/08/22 07:08:58;;;;;;;4.23;1.60;;;;;;;;;;5051250;28;20237;-78
2022/08/22 07:11:26;;;;;;;4.57;1.27;;;;;;;;;;5046662;28;20259;-78
2022/08/22 07:13:55;;;;;;;1.70;1.00;;;;;;;;;;5043409;28;20230;-78
2022/08/22 07:16:28;;;;;;;2.90;1.20;;;;;;;;;;5043593;28;20693;-77
2022/08/22 07:18:55;;;;;;;4.40;1.10;;;;;;;;;;5042822;28;20372;-78
2022/08/22 07:21:24;;;;;;;3.50;1.20;;;;;;;;;;5044542;28;20777;-78
2022/08/22 07:23:52;;;;;;;4.37;1.20;;;;;;;;;;5051307;28;20195;-78
2022/08/22 07:26:27;;;;;;;5.17;1.20;;;;;;;;;;5045664;28;20200;-78
2022/08/22 07:28:56;;;;;;;3.67;1.20;;;;;;;;;;5044554;28;20287;-78
2022/08/22 07:31:27;;;;;;;6.63;1.30;;;;;;;;;;5047615;28;20234;-79
2022/08/22 07:33:55;;;;;;;3.47;1.40;;;;;;;;;;5038935;28;20447;-78
2022/08/22 07:36:25;;;;;;;6.33;1.23;;;;;;;;;;5047242;28;20662;-79
2022/08/22 07:39:12;;;;;;;4.27;1.13;;;;;;;;;;5046814;28;20202;-78
2022/08/22 07:41:47;;;;;;;6.57;1.57;;;;;;;;;;5041281;28;20217;-78
2022/08/22 07:44:16;;;;;;;6.47;1.67;;;;;;;;;;5042615;28;20210;-78
2022/08/22 07:46:47;;;;;;;3.97;1.47;;;;;;;;;;5044941;28;20201;-79
2022/08/22 07:49:20;;;;;;;3.53;1.40;;;;;;;;;;5044447;28;20564;-78
2022/08/22 07:51:49;;;;;;;4.10;1.57;;;;;;;;;;5047456;28;20766;-78
2022/08/22 07:54:20;;;;;;;4.90;1.30;;;;;;;;;;5047701;28;20222;-79
2022/08/22 07:56:56;;;;;;;2.60;1.30;;;;;;;;;;5048494;28;20220;-78
2022/08/22 07:59:24;;;;;;;3.80;1.40;;;;;;;;;;5051104;28;20585;-79
2022/08/22 08:01:52;;;;;;;3.17;1.30;;;;;;;;;;5050575;28;20222;-79
2022/08/22 08:04:23;;;;;;;5.00;1.67;;;;;;;;;;5040120;28;20259;-80
2022/08/22 08:06:52;;;;;;;10.17;1.73;;;;;;;;;;5048426;28;20206;-79
2022/08/22 08:09:20;;;;;;;4.57;1.60;;;;;;;;;;5047059;28;20196;-81
2022/08/22 08:11:49;;;;;;;5.03;1.63;;;;;;;;;;5046477;28;20219;-80
2022/08/22 08:14:19;;;;;;;6.97;1.70;;;;;;;;;;5048998;28;20195;-79
2022/08/22 08:16:51;;;;;;;8.10;1.87;;;;;;;;;;5046395;28;20230;-80
2022/08/22 08:19:19;;;;;;;11.98;2.05;;;;;;;;;;5047278;28;20730;-79
2022/08/22 08:21:49;;;;;;;6.23;1.80;;;;;;;;;;5053718;28;20294;-80
2022/08/22 08:24:20;;;;;;;5.07;1.80;;;;;;;;;;5049655;28;20207;-80
2022/08/22 08:29:32;;;;;;;5.10;2.00;;;;;;;;;;5049418;28;20316;-79
2022/08/22 08:32:01;;;;;;;6.77;2.13;;;;;;;;;;5050346;28;20893;-79
2022/08/22 08:34:31;;;;;;;6.47;2.00;;;;;;;;;;5052336;28;20214;-79
2022/08/22 08:37:00;;;;;;;5.63;2.30;;;;;;;;;;5049148;28;20255;-79
2022/08/22 08:39:30;;;;;;;5.20;1.87;;;;;;;;;;5054488;28;20199;-77
2022/08/22 08:42:07;;;;;;;9.03;2.07;;;;;;;;;;5049763;28;20247;-79
2022/08/22 08:44:47;;;;;;;5.67;1.83;;;;;;;;;;5047878;28;20330;-79
2022/08/22 08:47:22;;;;;;;8.67;2.13;;;;;;;;;;5045903;28;20827;-79
2022/08/22 08:49:59;;;;;;;8.37;2.20;;;;;;;;;;5047362;28;20214;-78
2022/08/22 08:52:47;;;;;;;8.07;2.23;;;;;;;;;;5048504;28;20202;-79
2022/08/22 08:55:20;;;;;;;9.33;2.57;;;;;;;;;;5038177;28;20226;-79
2022/08/22 08:57:58;;;;;;;6.77;1.97;;;;;;;;;;5047419;28;20234;-79
2022/08/22 09:00:32;;;;;;;5.43;2.17;;;;;;;;;;5045515;28;20672;-77
2022/08/22 09:03:06;;;;;;;10.10;2.50;;;;;;;;;;5052414;28;20224;-78
2022/08/22 09:05:51;;;;;;;4.63;2.30;;;;;;;;;;5049558;28;20238;-79
2022/08/22 09:08:28;;;;;;;5.53;2.20;;;;;;;;;;5049319;28;20209;-78
2022/08/22 09:11:04;;;;;;;6.03;2.30;;;;;;;;;;5048859;28;20329;-78
2022/08/22 09:13:46;;;;;;;6.67;2.00;;;;;;;;;;5053246;28;20214;-78
2022/08/22 09:16:25;;;;;;;6.40;2.27;;;;;;;;;;5052133;28;20253;-78
2022/08/22 09:19:11;;;;;;;4.03;1.87;;;;;;;;;;5054920;28;20278;-78
2022/08/22 09:22:04;;;;;;;3.80;2.03;;;;;;;;;;5053804;28;20230;-78
2022/08/22 09:24:47;;;;;;;4.37;2.10;;;;;;;;;;5049042;28;20692;-78
2022/08/22 09:27:16;;;;;;;5.73;2.43;;;;;;;;;;5042353;28;20429;-78
2022/08/22 09:29:47;;;;;;;5.30;2.20;;;;;;;;;;5042120;28;20256;-77
2022/08/22 09:32:19;;;;;;;4.50;2.23;;;;;;;;;;5048203;28;20255;-78
2022/08/22 09:34:55;;;;;;;5.97;2.03;;;;;;;;;;5039469;28;20253;-76
2022/08/22 09:37:28;;;;;;;5.97;2.13;;;;;;;;;;5046908;28;20223;-77
2022/08/22 09:40:02;;;;;;;4.87;2.00;;;;;;;;;;5052187;28;20207;-77
2022/08/22 09:42:31;;;;;;;7.03;2.03;;;;;;;;;;5048809;28;20195;-77
2022/08/22 09:45:20;;;;;;;8.67;2.30;;;;;;;;;;5052542;28;20203;-77
2022/08/22 09:47:51;;;;;;;6.23;2.03;;;;;;;;;;5051362;28;20273;-77
2022/08/22 09:50:20;;;;;;;6.03;2.30;;;;;;;;;;5047291;28;20286;-78
2022/08/22 09:52:53;;;;;;;7.77;2.50;;;;;;;;;;5043836;28;20222;-77
2022/08/22 09:55:28;;;;;;;9.27;2.83;;;;;;;;;;5045650;28;20206;-79
2022/08/22 09:58:01;;;;;;;6.10;2.17;;;;;;;;;;5046180;28;20772;-78
2022/08/22 10:00:32;;;;;;;5.30;2.27;;;;;;;;;;5045313;28;20231;-80
2022/08/22 10:03:06;;;;;;;4.93;1.93;;;;;;;;;;5053442;28;20201;-79
2022/08/22 10:05:36;;;;;;;4.70;2.63;;;;;;;;;;5048959;28;20203;-79
2022/08/22 10:08:11;;;;;;;5.70;2.27;;;;;;;;;;5044138;28;20555;-79
2022/08/22 10:10:57;;;;;;;3.83;2.20;;;;;;;;;;5046872;28;20309;-78
2022/08/22 10:13:31;;;;;;;6.63;3.00;;;;;;;;;;5050746;28;20235;-79
2022/08/22 10:16:02;;;;;;;5.27;2.27;;;;;;;;;;5043081;28;20290;-79
2022/08/22 10:18:36;;;;;;;6.47;2.47;;;;;;;;;;5050615;28;20318;-80
2022/08/22 10:21:09;;;;;;;11.77;2.70;;;;;;;;;;5039093;28;20222;-78
2022/08/22 10:23:38;;;;;;;5.80;2.30;;;;;;;;;;5047587;28;20225;-79
2022/08/22 10:26:13;;;;;;;8.37;2.53;;;;;;;;;;5044391;28;20198;-79
2022/08/22 10:28:45;;;;;;;6.70;2.20;;;;;;;;;;5044694;28;20194;-79
2022/08/22 10:31:19;;;;;;;6.50;2.30;;;;;;;;;;5045973;28;20229;-79
2022/08/22 10:33:58;;;;;;;7.17;2.40;;;;;;;;;;5047003;28;20356;-79
2022/08/22 10:36:31;;;;;;;3.97;2.10;;;;;;;;;;5045653;28;20209;-80
2022/08/22 10:38:59;;;;;;;4.60;2.40;;;;;;;;;;5046431;28;20235;-79
2022/08/22 10:41:30;;;;;;;5.13;2.17;;;;;;;;;;5052862;28;20315;-79
2022/08/22 10:44:01;;;;;;;7.57;2.17;;;;;;;;;;5044780;28;20269;-79
2022/08/22 10:46:32;;;;;;;3.40;2.07;;;;;;;;;;5044902;28;20261;-80
2022/08/22 10:49:02;;;;;;;4.50;2.13;;;;;;;;;;5042917;28;20199;-79
2022/08/22 10:51:35;;;;;;;9.90;2.67;;;;;;;;;;5047501;28;20284;-80
2022/08/22 10:54:20;;;;;;;5.83;2.30;;;;;;;;;;5051111;28;20201;-79
2022/08/22 10:56:51;;;;;;;4.87;2.50;;;;;;;;;;5051671;28;20202;-79
2022/08/22 10:59:26;;;;;;;4.07;2.13;;;;;;;;;;5044704;28;20713;-79
2022/08/22 11:02:00;;;;;;;4.00;1.90;;;;;;;;;;5048660;28;20668;-79
2022/08/22 11:04:34;;;;;;;3.53;1.80;;;;;;;;;;5045342;28;20249;-78
2022/08/22 11:07:08;;;;;;;4.37;2.00;;;;;;;;;;5046105;28;20271;-79
2022/08/22 11:09:39;;;;;;;5.73;1.90;;;;;;;;;;5046686;28;20207;-78
2022/08/22 11:12:11;;;;;;;5.13;2.10;;;;;;;;;;5046490;28;20301;-78
2022/08/22 11:14:51;;;;;;;2.67;1.77;;;;;;;;;;5047935;28;20645;-78
2022/08/22 11:17:27;;;;;;;3.97;2.00;;;;;;;;;;5045473;28;20230;-78
2022/08/22 11:20:03;;;;;;;5.30;2.40;;;;;;;;;;5047017;28;20198;-79
2022/08/22 11:22:32;;;;;;;2.93;1.80;;;;;;;;;;5044785;28;20214;-79
2022/08/22 11:25:08;;;;;;;3.90;1.77;;;;;;;;;;5040327;28;20207;-79
2022/08/22 11:27:41;;;;;;;6.23;1.80;;;;;;;;;;5045190;28;20191;-79
2022/08/22 11:30:10;;;;;;;9.40;2.20;;;;;;;;;;5045510;28;20235;-79
2022/08/22 11:32:40;;;;;;;7.63;1.93;;;;;;;;;;5045410;28;20282;-79
2022/08/22 11:35:17;;;;;;;4.13;1.90;;;;;;;;;;5049543;28;20196;-79
2022/08/22 11:37:46;;;;;;;9.67;2.20;;;;;;;;;;5043829;28;20313;-79
2022/08/22 11:40:23;;;;;;;3.80;2.30;;;;;;;;;;5047110;28;20784;-79
2022/08/22 11:42:55;;;;;;;5.80;2.00;;;;;;;;;;5047710;28;20202;-79
2022/08/22 11:45:25;;;;;;;4.60;2.10;;;;;;;;;;5052323;28;20227;-79
2022/08/22 11:47:59;;;;;;;6.33;2.33;;;;;;;;;;5052293;28;20253;-79
2022/08/22 11:50:33;;;;;;;3.40;1.93;;;;;;;;;;5053070;28;20698;-79
2022/08/22 11:53:11;;;;;;;3.43;2.10;;;;;;;;;;5049515;28;20215;-79
2022/08/22 11:55:41;;;;;;;7.40;1.90;;;;;;;;;;5047534;28;20199;-78
2022/08/22 11:58:21;;;;;;;4.90;2.00;;;;;;;;;;5044861;28;20256;-76
2022/08/22 12:00:52;;;;;;;3.23;1.60;;;;;;;;;;5044062;28;20306;-77
2022/08/22 12:03:27;;;;;;;3.50;1.93;;;;;;;;;;5046207;28;20228;-78
2022/08/22 12:05:59;;;;;;;6.63;1.93;;;;;;;;;;5051605;28;20291;-77
2022/08/22 12:08:48;;;;;;;6.63;1.93;;;;;;;;;;5045397;28;20202;-77
2022/08/22 12:11:18;;;;;;;9.23;1.97;;;;;;;;;;5046821;28;20223;-79
2022/08/22 12:13:50;;;;;;;6.87;2.20;;;;;;;;;;5047509;28;20298;-80
2022/08/22 12:16:20;;;;;;;6.43;2.30;;;;;;;;;;5045064;28;20199;-77
2022/08/22 12:18:51;;;;;;;4.37;2.30;;;;;;;;;;5043233;28;20254;-77
2022/08/22 12:21:31;;;;;;;4.83;2.23;;;;;;;;;;5049037;28;20610;-79
2022/08/22 12:24:14;;;;;;;3.77;2.27;;;;;;;;;;5048304;28;20208;-77
2022/08/22 12:26:47;;;;;;;4.37;2.03;;;;;;;;;;5041223;28;20206;-77
2022/08/22 12:29:27;;;;;;;3.53;2.23;;;;;;;;;;5049052;28;20226;-79
2022/08/22 12:32:09;;;;;;;3.50;2.30;;;;;;;;;;5043217;28;20242;-79
2022/08/22 12:34:42;;;;;;;4.63;2.10;;;;;;;;;;5008485;28;20204;-77
2022/08/22 12:37:14;;;;;;;4.27;2.50;;;;;;;;;;5038952;28;20309;-80
2022/08/22 12:39:59;;;;;;;4.60;1.97;;;;;;;;;;5038472;28;20235;-77
2022/08/22 12:42:32;;;;;;;4.93;2.23;;;;;;;;;;5036608;28;20214;-77
2022/08/22 12:45:19;;;;;;;4.17;2.30;;;;;;;;;;5043306;28;20218;-77
2022/08/22 12:47:57;;;;;;;4.90;2.10;;;;;;;;;;5042769;28;20645;-77
2022/08/22 12:50:30;;;;;;;6.20;2.07;;;;;;;;;;5045605;28;20819;-77
2022/08/22 12:53:16;;;;;;;8.17;2.50;;;;;;;;;;5043107;28;20200;-77
2022/08/22 12:55:50;;;;;;;6.33;2.50;;;;;;;;;;5042619;28;20639;-78
2022/08/22 12:58:22;;;;;;;3.13;2.00;;;;;;;;;;5049187;28;20266;-77
2022/08/22 13:00:51;;;;;;;2.97;1.80;;;;;;;;;;5045690;28;20218;-77
2022/08/22 13:03:22;;;;;;;5.60;2.20;;;;;;;;;;5046774;28;20257;-78
2022/08/22 13:05:49;;;;;;;4.03;1.97;;;;;;;;;;5041949;28;20414;-77
2022/08/22 13:08:23;;;;;;;6.23;2.20;;;;;;;;;;5046483;28;20200;-78
2022/08/22 13:10:51;;;;;;;7.10;2.57;;;;;;;;;;5046229;28;20234;-78
2022/08/22 13:13:26;;;;;;;5.87;1.80;;;;;;;;;;5044163;28;20229;-76
2022/08/22 13:15:56;;;;;;;8.67;2.30;;;;;;;;;;5046814;28;20225;-78
2022/08/22 13:18:25;;;;;;;5.73;2.10;;;;;;;;;;5047411;28;20214;-77
2022/08/22 13:20:53;;;;;;;2.73;1.90;;;;;;;;;;5045049;28;20771;-78
2022/08/22 13:23:24;;;;;;;5.93;2.03;;;;;;;;;;5041829;28;20199;-78
2022/08/22 13:26:02;;;;;;;3.33;1.80;;;;;;;;;;5046147;28;20294;-77
2022/08/22 13:28:32;;;;;;;4.03;2.00;;;;;;;;;;5042160;28;20628;-78
2022/08/22 13:31:00;;;;;;;4.60;2.13;;;;;;;;;;5042771;28;20227;-78
2022/08/22 13:33:29;;;;;;;3.03;2.07;;;;;;;;;;5043896;28;20217;-77
2022/08/22 13:35:58;;;;;;;3.83;1.70;;;;;;;;;;5043667;28;20214;-77
2022/08/22 13:38:28;;;;;;;3.17;1.90;;;;;;;;;;5044660;28;20225;-79
2022/08/22 13:40:57;;;;;;;3.13;1.80;;;;;;;;;;5045969;28;20234;-81
2022/08/22 13:43:26;;;;;;;2.77;1.73;;;;;;;;;;5045888;28;20278;-80
2022/08/22 13:45:54;;;;;;;8.53;2.20;;;;;;;;;;5039989;28;20988;-79
2022/08/22 13:48:23;;;;;;;5.90;2.20;;;;;;;;;;5043587;28;20199;-80
2022/08/22 13:50:57;;;;;;;6.43;2.03;;;;;;;;;;5043895;28;20599;-79
2022/08/22 13:53:31;;;;;;;3.40;1.90;;;;;;;;;;5044658;28;20206;-79
2022/08/22 13:56:03;;;;;;;9.27;1.93;;;;;;;;;;5044351;28;20210;-79
2022/08/22 13:58:35;;;;;;;4.13;2.00;;;;;;;;;;5047476;28;20230;-80
2022/08/22 14:01:29;;;;;;;4.97;2.17;;;;;;;;;;5041297;28;20233;-79
2022/08/22 14:03:59;;;;;;;4.97;2.20;;;;;;;;;;5006556;28;20203;-78
2022/08/22 14:06:30;;;;;;;8.57;1.97;;;;;;;;;;5046873;28;20319;-78
2022/08/22 14:09:05;;;;;;;7.10;2.20;;;;;;;;;;5041747;28;20550;-77
2022/08/22 14:11:40;;;;;;;7.13;2.00;;;;;;;;;;5046197;28;20217;-78
2022/08/22 14:14:08;;;;;;;3.90;1.93;;;;;;;;;;5043992;28;20266;-77
2022/08/22 14:16:37;;;;;;;3.83;2.10;;;;;;;;;;5048218;28;20303;-78
2022/08/22 14:19:06;;;;;;;5.83;2.10;;;;;;;;;;5042934;28;20226;-77
2022/08/22 14:21:37;;;;;;;6.53;2.10;;;;;;;;;;5045578;28;20619;-78
2022/08/22 14:24:10;;;;;;;3.23;2.03;;;;;;;;;;5041008;28;20203;-77
2022/08/22 14:26:39;;;;;;;4.23;2.20;;;;;;;;;;5034723;28;20302;-78
2022/08/22 14:29:12;;;;;;;4.70;1.93;;;;;;;;;;5037379;28;20196;-77
2022/08/22 14:31:39;;;;;;;7.67;2.27;;;;;;;;;;5045823;28;20280;-77
2022/08/22 14:34:09;;;;;;;3.13;1.80;;;;;;;;;;5049896;28;20286;-78
2022/08/22 14:36:39;;;;;;;5.97;1.83;;;;;;;;;;5050392;28;20205;-77
2022/08/22 14:39:10;;;;;;;4.90;2.20;;;;;;;;;;5047037;28;20234;-77
2022/08/22 14:41:39;;;;;;;3.87;1.90;;;;;;;;;;5037522;28;20227;-78
2022/08/22 14:44:09;;;;;;;7.70;2.10;;;;;;;;;;5037277;28;20211;-77
2022/08/22 14:46:42;;;;;;;4.10;1.90;;;;;;;;;;5043223;28;20217;-76
2022/08/22 14:49:25;;;;;;;5.20;2.10;;;;;;;;;;5036265;28;21866;-77
2022/08/22 14:51:56;;;;;;;6.17;1.90;;;;;;;;;;5044564;28;20229;-78
2022/08/22 14:54:27;;;;;;;3.97;1.60;;;;;;;;;;5039911;28;20245;-78
2022/08/22 14:56:54;;;;;;;4.17;1.80;;;;;;;;;;5040368;28;20827;-77
2022/08/22 14:59:31;;;;;;;4.63;1.90;;;;;;;;;;5045327;28;20222;-78
2022/08/22 15:02:00;;;;;;;3.60;1.90;;;;;;;;;;5045621;28;20684;-77
2022/08/22 15:04:30;;;;;;;9.80;2.23;;;;;;;;;;5049048;28;20736;-78
2022/08/22 15:06:58;;;;;;;6.27;2.27;;;;;;;;;;5043696;28;20282;-77
2022/08/22 15:09:29;;;;;;;3.63;1.90;;;;;;;;;;5047144;28;20195;-78
2022/08/22 15:11:56;;;;;;;5.13;1.90;;;;;;;;;;5044551;28;20721;-77
2022/08/22 15:14:24;;;;;;;4.13;2.10;;;;;;;;;;5044495;28;20669;-78
2022/08/22 15:16:54;;;;;;;4.07;2.10;;;;;;;;;;5046449;28;20199;-78
2022/08/22 15:19:23;;;;;;;8.83;1.90;;;;;;;;;;5045006;28;20633;-77
2022/08/22 15:21:50;;;;;;;3.93;1.80;;;;;;;;;;5045134;28;20230;-79